createdAt,value
2022-12-07T00:01:47.767Z,100591.22
2022-12-07T00:04:18.095Z,100586.13
2022-12-07T00:06:49.037Z,100588.66
2022-12-07T00:09:18.881Z,100585.22
2022-12-07T00:11:49.723Z,100580.91
2022-12-07T00:14:18.538Z,100586.94
2022-12-07T00:16:46.921Z,100581.84
2022-12-07T00:19:16.222Z,100578.44
2022-12-07T00:21:44.496Z,100576.69
2022-12-07T00:24:14.511Z,100582.78
2022-12-07T00:26:44.952Z,100581.13
2022-12-07T00:29:17.337Z,100576.84
2022-12-07T00:31:45.042Z,100570.81
2022-12-07T00:34:15.141Z,100567.47
2022-12-07T00:36:42.900Z,100569.22
2022-12-07T00:39:10.809Z,100564.97
2022-12-07T00:41:40.011Z,100568.41
2022-12-07T00:44:07.805Z,100560.69
2022-12-07T00:46:35.562Z,100564.91
2022-12-07T00:49:03.280Z,100553.72
2022-12-07T00:51:31.360Z,100561.47
2022-12-07T00:53:59.064Z,100557.09
2022-12-07T00:56:28.888Z,100552.84
2022-12-07T00:59:00.421Z,100551.16
2022-12-07T01:01:30.988Z,100548.50
2022-12-07T01:03:58.952Z,100544.16
2022-12-07T01:06:27.929Z,100539.06
2022-12-07T01:08:56.438Z,100536.44
2022-12-07T01:11:26.641Z,100543.31
2022-12-07T01:13:55.990Z,100537.31
2022-12-07T01:16:26.278Z,100542.50
2022-12-07T01:18:56.427Z,100539.88
2022-12-07T01:21:26.671Z,100544.22
2022-12-07T01:23:54.509Z,100540.84
2022-12-07T01:26:25.049Z,100535.72
2022-12-07T01:28:55.803Z,100545.06
2022-12-07T01:31:26.505Z,100544.25
2022-12-07T01:33:58.309Z,100546.00
2022-12-07T01:36:28.126Z,100534.00
2022-12-07T01:38:57.887Z,100542.53
2022-12-07T01:41:27.680Z,100540.91
2022-12-07T01:44:16.562Z,100554.72
2022-12-07T01:46:47.395Z,100553.84
2022-12-07T01:49:20.724Z,100554.72
2022-12-07T01:51:51.122Z,100547.81
2022-12-07T01:54:19.807Z,100543.50
2022-12-07T01:56:53.343Z,100541.81
2022-12-07T01:59:23.832Z,100536.66
2022-12-07T02:01:53.390Z,100537.47
2022-12-07T02:04:21.397Z,100532.44
2022-12-07T02:06:49.447Z,100536.84
2022-12-07T02:09:17.261Z,100542.97
2022-12-07T02:11:44.948Z,100541.41
2022-12-07T02:14:12.614Z,100544.84
2022-12-07T02:16:49.207Z,100549.16
2022-12-07T02:19:41.277Z,100548.31
2022-12-07T02:22:22.696Z,100543.16
2022-12-07T02:24:56.709Z,100543.97
2022-12-07T02:27:39.647Z,100538.84
2022-12-07T02:30:11.043Z,100532.81
2022-12-07T02:32:46.808Z,100526.75
2022-12-07T02:35:20.676Z,100525.84
2022-12-07T02:37:58.779Z,100527.47
2022-12-07T02:40:31.283Z,100518.81
2022-12-07T02:43:06.328Z,100518.75
2022-12-07T02:45:38.151Z,100505.91
2022-12-07T02:48:08.181Z,100509.25
2022-12-07T02:50:35.849Z,100506.66
2022-12-07T02:53:03.529Z,100504.97
2022-12-07T02:55:35.807Z,100508.34
2022-12-07T02:58:20.209Z,100502.34
2022-12-07T03:00:56.729Z,100504.00
2022-12-07T03:03:25.426Z,100503.06
2022-12-07T03:06:18.454Z,100495.31
2022-12-07T03:08:54.569Z,100500.41
2022-12-07T03:11:27.881Z,100496.13
2022-12-07T03:14:00.896Z,100495.31
2022-12-07T03:16:34.496Z,100495.34
2022-12-07T03:19:05.747Z,100494.50
2022-12-07T03:21:37.626Z,100486.78
2022-12-07T03:24:11.822Z,100481.56
2022-12-07T03:26:45.122Z,100489.22
2022-12-07T03:29:17.299Z,100490.94
2022-12-07T03:31:53.279Z,100484.09
2022-12-07T03:34:29.082Z,100479.84
2022-12-07T03:37:03.774Z,100479.84
2022-12-07T03:39:38.260Z,100484.13
2022-12-07T03:42:09.489Z,100485.78
2022-12-07T03:44:38.781Z,100478.94
2022-12-07T03:47:14.725Z,100484.13
2022-12-07T03:49:46.592Z,100477.28
2022-12-07T03:52:26.799Z,100488.44
2022-12-07T03:55:02.236Z,100482.38
2022-12-07T03:57:32.486Z,100485.78
2022-12-07T04:00:01.443Z,100478.06
2022-12-07T04:02:42.929Z,100474.56
2022-12-07T04:05:11.416Z,100475.41
2022-12-07T04:07:39.651Z,100478.88
2022-12-07T04:10:08.296Z,100487.44
2022-12-07T04:12:36.089Z,100484.03
2022-12-07T04:15:04.033Z,100478.94
2022-12-07T04:17:32.160Z,100485.03
2022-12-07T04:20:01.511Z,100479.84
2022-12-07T04:22:29.371Z,100472.97
2022-12-07T04:24:57.093Z,100474.59
2022-12-07T04:27:24.913Z,100476.31
2022-12-07T04:29:52.665Z,100471.97
2022-12-07T04:32:20.288Z,100472.78
2022-12-07T04:34:50.379Z,100479.59
2022-12-07T04:37:23.190Z,100486.50
2022-12-07T04:39:50.933Z,100478.94
2022-12-07T04:42:18.603Z,100474.69
2022-12-07T04:44:46.552Z,100471.25
2022-12-07T04:47:14.233Z,100478.13
2022-12-07T04:49:42.299Z,100476.34
2022-12-07T04:52:12.018Z,100473.72
2022-12-07T04:54:41.157Z,100473.69
2022-12-07T04:57:08.964Z,100469.41
2022-12-07T04:59:39.881Z,100462.59
2022-12-07T05:02:11.655Z,100464.25
2022-12-07T05:04:39.440Z,100465.09
2022-12-07T05:07:07.174Z,100466.81
2022-12-07T05:09:35.054Z,100461.63
2022-12-07T05:12:04.207Z,100465.06
2022-12-07T05:14:32.354Z,100472.84
2022-12-07T05:17:00.031Z,100471.16
2022-12-07T05:19:28.173Z,100469.47
2022-12-07T05:21:55.849Z,100466.03
2022-12-07T05:24:23.742Z,100474.53
2022-12-07T05:26:51.444Z,100469.41
2022-12-07T05:29:20.459Z,100473.75
2022-12-07T05:31:48.504Z,100474.63
2022-12-07T05:34:16.335Z,100473.78
2022-12-07T05:36:44.067Z,100468.75
2022-12-07T05:39:12.250Z,100473.84
2022-12-07T05:41:57.513Z,100469.59
2022-12-07T05:44:26.667Z,100462.78
2022-12-07T05:46:54.322Z,100473.06
2022-12-07T05:49:22.077Z,100468.75
2022-12-07T05:51:49.984Z,100475.69
2022-12-07T05:54:17.918Z,100474.88
2022-12-07T05:56:45.736Z,100470.59
2022-12-07T05:59:24.677Z,100468.03
2022-12-07T06:01:54.830Z,100466.31
2022-12-07T06:04:23.798Z,100471.41
2022-12-07T06:06:51.481Z,100463.66
2022-12-07T06:09:20.394Z,100468.69
2022-12-07T06:12:05.953Z,100475.53
2022-12-07T06:14:33.659Z,100476.34
2022-12-07T06:17:03.205Z,100482.31
2022-12-07T06:19:31.374Z,100472.88
2022-12-07T06:21:59.182Z,100467.72
2022-12-07T06:24:27.245Z,100480.59
2022-12-07T06:26:55.141Z,100476.31
2022-12-07T06:29:22.972Z,100475.41
2022-12-07T06:31:50.804Z,100477.97
2022-12-07T06:34:23.618Z,100478.78
2022-12-07T06:36:52.897Z,100471.06
2022-12-07T06:39:21.919Z,100473.59
2022-12-07T06:41:49.753Z,100476.09
2022-12-07T06:44:17.572Z,100480.38
2022-12-07T06:46:45.437Z,100478.63
2022-12-07T06:49:13.327Z,100481.19
2022-12-07T06:51:42.970Z,100479.38
2022-12-07T06:54:11.421Z,100476.00
2022-12-07T06:56:39.212Z,100479.38
2022-12-07T06:59:08.517Z,100483.63
2022-12-07T07:01:37.469Z,100483.66
2022-12-07T07:04:05.601Z,100482.75
2022-12-07T07:06:33.733Z,100485.34
2022-12-07T07:09:03.030Z,100487.03
2022-12-07T07:11:30.776Z,100482.75
2022-12-07T07:14:02.988Z,100479.28
2022-12-07T07:16:31.961Z,100488.72
2022-12-07T07:18:59.953Z,100487.84
2022-12-07T07:21:27.689Z,100483.50
2022-12-07T07:23:55.370Z,100492.94
2022-12-07T07:26:24.632Z,100487.69
2022-12-07T07:28:52.446Z,100485.97
2022-12-07T07:31:20.143Z,100489.41
2022-12-07T07:33:48.245Z,100489.53
2022-12-07T07:36:16.516Z,100495.53
2022-12-07T07:38:44.255Z,100498.09
2022-12-07T07:41:12.121Z,100500.63
2022-12-07T07:43:41.417Z,100501.47
2022-12-07T07:46:09.298Z,100501.47
2022-12-07T07:48:37.110Z,100510.00
2022-12-07T07:51:07.852Z,100510.00
2022-12-07T07:53:35.739Z,100507.41
2022-12-07T07:56:04.256Z,100498.84
2022-12-07T07:58:32.106Z,100511.75
2022-12-07T08:01:07.998Z,100510.84
2022-12-07T08:03:37.193Z,100510.84
2022-12-07T08:06:05.779Z,100509.13
2022-12-07T08:08:33.848Z,100513.41
2022-12-07T08:11:02.492Z,100507.38
2022-12-07T08:13:31.557Z,100508.13
2022-12-07T08:16:00.264Z,100505.44
2022-12-07T08:18:29.380Z,100502.00
2022-12-07T08:21:02.352Z,100508.84
2022-12-07T08:23:37.556Z,100515.66
2022-12-07T08:26:09.786Z,100505.34
2022-12-07T08:28:38.006Z,100506.16
2022-12-07T08:31:08.076Z,100512.06
2022-12-07T08:33:38.040Z,100508.56
2022-12-07T08:36:09.473Z,100510.38
2022-12-07T08:38:37.856Z,100511.06
2022-12-07T08:41:05.908Z,100510.09
2022-12-07T08:43:34.191Z,100515.22
2022-12-07T08:46:08.611Z,100514.31
2022-12-07T08:48:42.931Z,100505.66
2022-12-07T08:51:10.828Z,100513.34
2022-12-07T08:53:40.071Z,100511.59
2022-12-07T08:56:09.639Z,100505.47
2022-12-07T08:58:39.057Z,100508.00
2022-12-07T09:01:07.225Z,100511.38
2022-12-07T09:03:35.520Z,100509.56
2022-12-07T09:06:05.554Z,100508.63
2022-12-07T09:08:36.866Z,100504.28
2022-12-07T09:11:04.702Z,100507.66
2022-12-07T09:13:32.402Z,100513.56
2022-12-07T09:16:00.157Z,100509.19
2022-12-07T09:18:27.847Z,100516.03
2022-12-07T09:20:55.557Z,100506.50
2022-12-07T09:23:24.883Z,100509.88
2022-12-07T09:25:52.566Z,100515.00
2022-12-07T09:28:20.386Z,100511.50
2022-12-07T09:31:21.721Z,100514.94
2022-12-07T09:33:36.674Z,100515.75
2022-12-07T09:36:06.456Z,100507.13
2022-12-07T09:38:36.499Z,100514.81
2022-12-07T09:41:07.425Z,100503.53
2022-12-07T09:43:37.465Z,100508.63
2022-12-07T09:46:06.077Z,100506.84
2022-12-07T09:48:37.523Z,100502.59
2022-12-07T09:51:18.020Z,100499.38
2022-12-07T09:53:52.804Z,100509.91
2022-12-07T09:56:21.885Z,100512.72
2022-12-07T09:58:51.809Z,100510.22
2022-12-07T10:01:21.878Z,100506.78
2022-12-07T10:03:53.877Z,100507.66
2022-12-07T10:06:21.786Z,100501.69
2022-12-07T10:08:51.194Z,100501.69
2022-12-07T10:11:19.076Z,100504.06
2022-12-07T10:13:49.833Z,100491.03
2022-12-07T10:16:40.011Z,100491.88
2022-12-07T10:19:21.520Z,100494.38
2022-12-07T10:22:06.256Z,100485.56
2022-12-07T10:24:35.316Z,100481.09
2022-12-07T10:27:03.116Z,100473.31
2022-12-07T10:29:33.530Z,100469.69
2022-12-07T10:32:03.375Z,100473.56
2022-12-07T10:34:35.292Z,100473.41
2022-12-07T10:37:19.467Z,100468.41
2022-12-07T10:39:50.497Z,100468.50
2022-12-07T10:42:20.644Z,100468.47
2022-12-07T10:44:49.688Z,100464.38
2022-12-07T10:47:36.654Z,100471.94
2022-12-07T10:50:21.614Z,100470.94
2022-12-07T10:53:08.575Z,100458.56
2022-12-07T10:55:54.076Z,100457.31
2022-12-07T10:58:38.558Z,100451.41
2022-12-07T11:01:15.250Z,100442.59
2022-12-07T11:04:09.551Z,100445.25
2022-12-07T11:06:42.772Z,100440.19
2022-12-07T11:13:10.117Z,100436.78
2022-12-07T11:16:07.648Z,100432.47
2022-12-07T11:18:47.076Z,100426.25
2022-12-07T11:21:22.629Z,100431.66
2022-12-07T11:23:58.106Z,100425.06
2022-12-07T11:26:37.238Z,100428.84
2022-12-07T11:29:23.000Z,100421.34
2022-12-07T11:32:01.652Z,100419.56
2022-12-07T11:34:41.816Z,100414.16
2022-12-07T11:37:15.909Z,100419.56
2022-12-07T11:39:48.420Z,100408.25
2022-12-07T11:42:20.924Z,100402.00
2022-12-07T11:44:55.351Z,100389.13
2022-12-07T11:47:30.394Z,100393.66
2022-12-07T11:50:07.569Z,100396.59
2022-12-07T11:52:44.900Z,100398.69
2022-12-07T11:55:23.183Z,100396.91
2022-12-07T11:57:56.804Z,100391.13
2022-12-07T12:00:25.971Z,100394.72
2022-12-07T12:03:02.216Z,100395.63
2022-12-07T12:05:31.068Z,100391.41
2022-12-07T12:11:11.104Z,100392.28
2022-12-07T12:17:30.720Z,100382.72
2022-12-07T12:20:04.919Z,100374.88
2022-12-07T12:22:39.183Z,100385.97
2022-12-07T12:25:09.650Z,100385.88
2022-12-07T12:27:41.069Z,100385.72
2022-12-07T12:30:28.069Z,100371.97
2022-12-07T12:33:05.615Z,100371.97
2022-12-07T12:35:35.321Z,100365.06
2022-12-07T12:38:29.493Z,100359.88
2022-12-07T12:40:57.976Z,100365.03
2022-12-07T12:43:55.950Z,100358.94
2022-12-07T12:46:52.021Z,100351.84
2022-12-07T12:49:45.827Z,100354.56
2022-12-07T12:52:58.492Z,100348.56
2022-12-07T12:55:49.747Z,100345.13
2022-12-07T12:58:39.593Z,100337.38
2022-12-07T13:01:40.731Z,100337.25
2022-12-07T13:04:34.628Z,100330.28
2022-12-07T13:07:03.721Z,100326.66
2022-12-07T13:09:37.294Z,100327.63
2022-12-07T13:12:13.827Z,100329.50
2022-12-07T13:14:56.884Z,100322.81
2022-12-07T13:17:59.328Z,100324.69
2022-12-07T13:20:45.895Z,100316.25
2022-12-07T13:23:18.633Z,100314.66
2022-12-07T13:25:53.376Z,100320.78
2022-12-07T13:28:23.466Z,100320.94
2022-12-07T13:31:13.816Z,100317.53
2022-12-07T13:33:44.749Z,100322.72
2022-12-07T13:36:19.740Z,100325.28
2022-12-07T13:38:53.956Z,100321.03
2022-12-07T13:41:23.495Z,100325.34
2022-12-07T13:43:54.730Z,100320.22
2022-12-07T13:46:27.997Z,100322.78
2022-12-07T13:48:56.533Z,100319.34
2022-12-07T13:51:26.613Z,100313.28
2022-12-07T13:53:57.919Z,100311.66
2022-12-07T13:56:31.364Z,100310.72
2022-12-07T13:58:59.085Z,100306.47
2022-12-07T14:01:27.560Z,100309.06
2022-12-07T14:03:55.294Z,100309.94
2022-12-07T14:06:29.860Z,100303.97
2022-12-07T14:09:20.232Z,100305.75
2022-12-07T14:11:49.819Z,100301.69
2022-12-07T14:14:21.181Z,100309.56
2022-12-07T14:17:03.338Z,100307.94
2022-12-07T14:19:48.564Z,100305.25
2022-12-07T14:22:31.989Z,100308.66
2022-12-07T14:25:19.471Z,100310.53
2022-12-07T14:27:58.361Z,100316.69
2022-12-07T14:30:28.897Z,100325.19
2022-12-07T14:33:01.293Z,100314.69
2022-12-07T14:35:29.090Z,100316.34
2022-12-07T14:37:56.850Z,100313.63
2022-12-07T14:40:28.655Z,100314.44
2022-12-07T14:42:59.276Z,100308.38
2022-12-07T14:45:26.936Z,100305.91
2022-12-07T14:53:37.045Z,100300.78
2022-12-07T14:56:07.402Z,100301.63
2022-12-07T14:58:35.180Z,100301.78
2022-12-07T15:01:03.200Z,100297.63
2022-12-07T15:03:31.639Z,100296.94
2022-12-07T15:05:59.823Z,100294.44
2022-12-07T15:08:27.742Z,100303.19
2022-12-07T15:10:55.478Z,100299.00
2022-12-07T15:13:41.998Z,100304.22
2022-12-07T15:16:12.870Z,100301.75
2022-12-07T15:18:45.395Z,100301.00
2022-12-07T15:21:20.892Z,100295.91
2022-12-07T15:23:49.129Z,100294.28
2022-12-07T15:26:16.915Z,100296.97
2022-12-07T15:28:45.954Z,100292.84
2022-12-07T15:31:39.104Z,100295.41
2022-12-07T15:34:01.577Z,100286.91
2022-12-07T15:36:32.421Z,100287.13
2022-12-07T15:39:15.897Z,100286.44
2022-12-07T15:41:43.749Z,100286.53
2022-12-07T15:44:31.883Z,100286.47
2022-12-07T15:46:59.546Z,100282.91
2022-12-07T15:49:28.338Z,100281.06
2022-12-07T15:51:56.137Z,100281.06
2022-12-07T15:54:25.869Z,100287.16
2022-12-07T15:56:53.617Z,100282.06
2022-12-07T15:59:22.844Z,100276.13
2022-12-07T16:01:50.997Z,100277.91
2022-12-07T16:04:19.590Z,100274.50
2022-12-07T16:06:47.413Z,100275.44
2022-12-07T16:09:15.117Z,100273.78
2022-12-07T16:11:42.778Z,100263.50
2022-12-07T16:14:10.430Z,100266.09
2022-12-07T16:16:41.073Z,100264.44
2022-12-07T16:19:09.376Z,100264.38
2022-12-07T16:21:37.516Z,100267.81
2022-12-07T16:24:07.079Z,100273.03
2022-12-07T16:26:35.205Z,100264.44
2022-12-07T16:29:02.871Z,100268.66
2022-12-07T16:31:31.689Z,100268.59
2022-12-07T16:34:00.844Z,100265.28
2022-12-07T16:39:16.496Z,100274.88
2022-12-07T16:41:44.435Z,100275.75
2022-12-07T16:44:14.385Z,100271.47
2022-12-07T16:46:42.647Z,100274.84
2022-12-07T16:49:14.669Z,100270.59
2022-12-07T16:51:43.807Z,100264.78
2022-12-07T16:54:12.545Z,100266.47
2022-12-07T16:56:40.450Z,100270.72
2022-12-07T16:59:08.140Z,100269.81
2022-12-07T17:01:36.785Z,100275.22
2022-12-07T17:04:05.386Z,100264.22
2022-12-07T17:06:34.640Z,100263.50
2022-12-07T17:09:02.248Z,100271.34
2022-12-07T17:11:32.612Z,100268.00
2022-12-07T17:14:17.847Z,100265.63
2022-12-07T17:16:45.914Z,100264.06
2022-12-07T17:19:15.946Z,100270.13
2022-12-07T17:21:45.649Z,100267.59
2022-12-07T17:24:15.493Z,100266.81
2022-12-07T17:26:45.140Z,100261.75
2022-12-07T17:29:14.904Z,100266.03
2022-12-07T17:31:49.319Z,100265.91
2022-12-07T17:34:18.832Z,100264.13
2022-12-07T17:36:48.272Z,100267.56
2022-12-07T17:39:18.642Z,100257.25
2022-12-07T17:42:15.733Z,100255.56
2022-12-07T17:44:43.417Z,100258.38
2022-12-07T17:47:11.181Z,100255.03
2022-12-07T17:49:38.890Z,100249.88
2022-12-07T17:52:25.333Z,100255.94
2022-12-07T17:54:52.986Z,100257.78
2022-12-07T17:57:21.421Z,100255.28
2022-12-07T17:59:50.079Z,100247.75
2022-12-07T18:02:17.978Z,100249.63
2022-12-07T18:04:47.449Z,100247.25
2022-12-07T18:07:16.725Z,100255.00
2022-12-07T18:09:44.556Z,100255.06
2022-12-07T18:12:12.414Z,100247.38
2022-12-07T18:14:40.138Z,100256.81
2022-12-07T18:17:07.822Z,100247.41
2022-12-07T18:19:37.149Z,100246.50
2022-12-07T18:22:05.018Z,100241.25
2022-12-07T18:24:37.149Z,100235.88
2022-12-07T18:27:05.589Z,100229.81
2022-12-07T18:29:33.429Z,100227.03
2022-12-07T18:32:01.640Z,100233.78
2022-12-07T18:34:30.387Z,100233.72
2022-12-07T18:36:58.092Z,100230.25
2022-12-07T18:39:31.616Z,100227.59
2022-12-07T18:42:03.134Z,100223.38
2022-12-07T18:44:30.800Z,100219.88
2022-12-07T18:46:58.542Z,100227.66
2022-12-07T18:49:26.242Z,100229.38
2022-12-07T18:51:53.943Z,100228.56
2022-12-07T18:54:21.580Z,100227.72
2022-12-07T18:56:49.272Z,100228.59
2022-12-07T18:59:35.902Z,100224.22
2022-12-07T19:02:03.672Z,100217.38
2022-12-07T19:04:31.783Z,100211.38
2022-12-07T19:06:59.795Z,100214.88
2022-12-07T19:09:27.560Z,100214.06
2022-12-07T19:11:56.383Z,100207.22
2022-12-07T19:14:28.741Z,100206.34
2022-12-07T19:16:58.440Z,100208.88
2022-12-07T19:19:31.061Z,100207.16
2022-12-07T19:21:58.925Z,100213.16
2022-12-07T19:24:26.740Z,100219.16
2022-12-07T19:26:54.469Z,100216.56
2022-12-07T19:29:22.354Z,100220.88
2022-12-07T19:31:51.418Z,100210.59
2022-12-07T19:34:19.172Z,100210.56
2022-12-07T19:36:47.799Z,100214.06
2022-12-07T19:39:17.293Z,100215.00
2022-12-07T19:41:46.074Z,100209.97
2022-12-07T19:44:16.088Z,100214.19
2022-12-07T19:46:46.785Z,100203.06
2022-12-07T19:49:16.342Z,100202.28
2022-12-07T19:51:45.537Z,100210.91
2022-12-07T19:54:15.606Z,100205.09
2022-12-07T19:56:44.716Z,100209.31
2022-12-07T19:59:13.439Z,100205.72
2022-12-07T20:01:42.135Z,100203.97
2022-12-07T20:04:12.016Z,100201.44
2022-12-07T20:06:41.428Z,100199.72
2022-12-07T20:09:09.395Z,100178.25
2022-12-07T20:11:55.752Z,100173.06
2022-12-07T20:14:24.042Z,100172.16
2022-12-07T20:16:52.243Z,100179.88
2022-12-07T20:19:20.166Z,100179.00
2022-12-07T20:21:50.469Z,100176.44
2022-12-07T20:24:20.226Z,100180.66
2022-12-07T20:26:50.197Z,100179.84
2022-12-07T20:29:20.145Z,100175.63
2022-12-07T20:31:49.921Z,100169.56
2022-12-07T20:34:17.908Z,100171.19
2022-12-07T20:36:46.204Z,100171.22
2022-12-07T20:39:15.951Z,100174.59
2022-12-07T20:42:01.102Z,100167.72
2022-12-07T20:44:28.871Z,100178.88
2022-12-07T20:46:56.543Z,100166.94
2022-12-07T20:49:24.300Z,100167.78
2022-12-07T20:51:52.084Z,100169.44
2022-12-07T20:54:21.167Z,100166.00
2022-12-07T20:56:48.793Z,100168.59
2022-12-07T20:59:18.982Z,100165.94
2022-12-07T21:01:46.975Z,100159.06
2022-12-07T21:04:15.679Z,100168.50
2022-12-07T21:06:43.434Z,100165.78
2022-12-07T21:09:12.271Z,100160.66
2022-12-07T21:11:41.387Z,100147.00
2022-12-07T21:14:09.490Z,100143.59
2022-12-07T21:16:37.182Z,100146.19
2022-12-07T21:19:05.927Z,100147.03
2022-12-07T21:21:34.978Z,100143.50
2022-12-07T21:24:04.978Z,100147.78
2022-12-07T21:26:34.514Z,100146.94
2022-12-07T21:29:04.471Z,100146.09
2022-12-07T21:31:32.482Z,100139.19
2022-12-07T21:34:02.336Z,100134.94
2022-12-07T21:36:30.043Z,100133.22
2022-12-07T21:38:58.375Z,100135.06
2022-12-07T21:41:27.726Z,100129.78
2022-12-07T21:43:55.898Z,100128.06
2022-12-07T21:46:33.369Z,100135.84
2022-12-07T21:49:03.811Z,100129.91
2022-12-07T21:51:31.717Z,100131.56
2022-12-07T21:54:00.530Z,100130.66
2022-12-07T21:56:29.956Z,100128.16
2022-12-07T21:59:01.686Z,100129.00
2022-12-07T22:01:37.668Z,100128.94
2022-12-07T22:04:06.427Z,100140.22
2022-12-07T22:06:35.064Z,100122.16
2022-12-07T22:09:03.898Z,100124.72
2022-12-07T22:11:31.545Z,100119.56
2022-12-07T22:14:16.970Z,100120.38
2022-12-07T22:16:46.224Z,100124.69
2022-12-07T22:19:14.084Z,100117.78
2022-12-07T22:21:41.835Z,100113.47
2022-12-07T22:24:10.864Z,100111.25
2022-12-07T22:26:38.498Z,100112.25
2022-12-07T22:29:06.112Z,100099.19
2022-12-07T22:31:33.957Z,100103.28
2022-12-07T22:34:03.043Z,100101.63
2022-12-07T22:36:30.637Z,100107.97
2022-12-07T22:38:58.329Z,100100.88
2022-12-07T22:41:27.750Z,100102.75
2022-12-07T22:43:55.826Z,100102.03
2022-12-07T22:46:24.496Z,100095.28
2022-12-07T22:48:52.916Z,100098.69
2022-12-07T22:51:24.123Z,100091.81
2022-12-07T22:53:52.965Z,100088.47
2022-12-07T22:56:21.415Z,100083.41
2022-12-07T22:58:49.199Z,100080.38
2022-12-07T23:01:19.495Z,100080.53
2022-12-07T23:03:47.498Z,100079.03
2022-12-07T23:06:17.749Z,100080.78
2022-12-07T23:08:46.858Z,100074.06
2022-12-07T23:11:38.491Z,100068.06
2022-12-07T23:14:10.009Z,100068.91
2022-12-07T23:16:38.017Z,100064.69
2022-12-07T23:19:05.786Z,100062.22
2022-12-07T23:21:34.207Z,100057.06
2022-12-07T23:24:03.348Z,100058.75
2022-12-07T23:26:31.179Z,100058.75
2022-12-07T23:28:59.344Z,100058.72
2022-12-07T23:31:27.035Z,100053.56
2022-12-07T23:33:55.113Z,100046.63
2022-12-07T23:36:25.188Z,100048.28
2022-12-07T23:38:54.485Z,100047.50
2022-12-07T23:41:25.286Z,100052.72
2022-12-07T23:43:54.084Z,100050.91
2022-12-07T23:46:23.673Z,100052.69
2022-12-07T23:48:52.661Z,100047.47
2022-12-07T23:51:20.977Z,100042.09
2022-12-07T23:53:50.846Z,100033.50
2022-12-07T23:56:20.717Z,100039.59
2022-12-07T23:58:50.896Z,100033.00
